createdAt,value
2019-05-12T18:08:40.228Z,10.24
2019-05-12T18:13:39.675Z,70.1
2019-05-12T18:18:40.296Z,105.67
2019-05-12T18:23:36.500Z,132.49
2019-05-12T18:28:35.641Z,148.91
2019-05-12T18:33:48.668Z,162.44
2019-05-12T18:38:37.367Z,167.12
2019-05-12T18:43:36.742Z,179.43
2019-05-12T18:48:36.468Z,170.68
2019-05-12T18:53:37.080Z,194.05
2019-05-12T18:58:39.904Z,197.29
2019-05-12T19:03:54.215Z,203.74
2019-05-12T19:08:35.578Z,202.12
2019-05-12T19:13:35.953Z,200.65
2019-05-12T19:18:39.425Z,186.18
2019-05-12T19:23:39.582Z,211.43
2019-05-12T19:28:41.781Z,164.51
2019-05-12T19:33:35.516Z,185.55
2019-05-12T19:38:36.669Z,205.89
2019-05-12T19:43:39.163Z,206.93
2019-05-12T19:48:49.590Z,172.08
2019-05-12T19:53:35.587Z,190.47
2019-05-12T19:58:36.174Z,199.55
2019-05-12T20:03:35.718Z,194.96
2019-05-12T20:08:35.513Z,196.24
2019-05-12T20:13:40.358Z,192.02
2019-05-12T20:18:48.838Z,208.76
2019-05-12T20:23:40.266Z,198.12
2019-05-12T20:28:52.877Z,182.35
2019-05-12T20:33:40.262Z,129.13
2019-05-12T20:38:44.341Z,143.45
2019-05-12T20:43:44.214Z,147.48
2019-05-12T20:48:40.344Z,139.41
2019-05-12T20:53:40.240Z,134.72
2019-05-12T20:58:46.669Z,161.19
2019-05-12T21:03:45.188Z,153.4
2019-05-12T21:08:44.669Z,154.1
2019-05-12T21:13:40.235Z,151.87
2019-05-12T21:23:45.457Z,142.12
2019-05-12T21:28:48.834Z,128.44
2019-05-12T21:33:43.733Z,128.73
2019-05-12T21:38:40.366Z,149.31
2019-05-12T21:43:40.245Z,161.04
2019-05-12T21:48:40.221Z,194.16
2019-05-12T21:53:40.202Z,194.85
2019-05-12T21:58:54.653Z,197.65
2019-05-12T22:03:45.753Z,212.51
2019-05-12T22:08:40.929Z,234.36
2019-05-12T22:18:40.892Z,250.71
2019-05-12T22:23:53.715Z,280.49
2019-05-12T22:28:46.523Z,276.5
2019-05-12T22:33:49.636Z,294.48
2019-05-12T22:38:40.920Z,295.01
2019-05-12T22:43:45.783Z,308.21
2019-05-12T22:48:42.745Z,311.99
2019-05-12T22:53:42.952Z,335.08
2019-05-12T22:58:40.876Z,317.08
2019-05-12T23:03:55.415Z,324.87
2019-05-12T23:08:49.203Z,286.82
2019-05-12T23:13:44.830Z,237.73
2019-05-12T23:18:40.899Z,185.14
2019-05-12T23:23:40.825Z,190.8
2019-05-12T23:28:46.637Z,223.73
2019-05-12T23:33:40.880Z,199.68
2019-05-12T23:38:40.858Z,198.6
2019-05-12T23:43:40.804Z,217.26
2019-05-12T23:48:40.816Z,245.68
2019-05-12T23:53:40.864Z,234.03
2019-05-12T23:58:43.162Z,266.04
